Terminal Aerodrome Forecast
Issued by NWS Green Bay, WI

Home | Current Version | Previous Version | Text Only | Print | Product List | Glossary Off
Versions: 1 2 3 4 5 6 7 8 9 10 11 12 13 14 15 16 17 18 19 20 21 22 23

000
FTUS43 KGRB 180520
TAFGRB
TAF
KGRB 180520Z 1806/1906 24006KT P6SM SKC
     FM181200 19003KT P6SM SCT100
     FM181500 16008G16KT P6SM BKN100
     FM181900 18013G23KT P6SM BKN120 WS020/21050KT
     FM190000 18012KT P6SM BKN100 WS020/21050KT=

USA.gov is the U.S. government's official web portal to all federal, state and local government web resources and services.